Time;durP1;ratioP1;P1;durP2;ratioP2;P2;SDS_P1;SDS_P2;PMS_P1;PMS_P2;Temp;Humidity;BMP_temperature;BMP_pressure;BME280_temperature;BME280_humidity;BME280_pressure;Samples;Min_cycle;Max_cycle;Signal;HPM_P1;HPM_P2
2023/07/27 00:02:02;;;;;;;6.10;3.13;;;;;15.80;100500.00;;;;10444745;27;20242;-77
2023/07/27 00:07:04;;;;;;;3.53;2.75;;;;;15.80;100497.00;;;;10481808;27;20291;-78
2023/07/27 00:12:06;;;;;;;6.57;3.10;;;;;15.70;100491.00;;;;10444880;27;21183;-78
2023/07/27 00:17:07;;;;;;;4.82;3.53;;;;;15.60;100500.00;;;;10458432;27;20215;-78
2023/07/27 00:22:09;;;;;;;11.23;3.88;;;;;15.50;100493.00;;;;10458471;27;20250;-79
2023/07/27 00:27:10;;;;;;;5.13;3.88;;;;;15.50;100487.00;;;;10476841;27;20211;-78
2023/07/27 00:32:12;;;;;;;6.35;3.70;;;;;15.40;100478.00;;;;10462983;27;20225;-78
2023/07/27 00:37:13;;;;;;;6.72;4.00;;;;;15.40;100473.00;;;;10484559;27;20227;-78
2023/07/27 00:42:16;;;;;;;6.60;4.63;;;;;15.40;100470.00;;;;10450442;27;20208;-78
2023/07/27 00:47:17;;;;;;;7.88;4.20;;;;;15.50;100448.00;;;;10464059;27;20250;-77
2023/07/27 00:52:19;;;;;;;5.75;4.63;;;;;15.50;100443.00;;;;10478866;27;20236;-77
2023/07/27 00:57:22;;;;;;;8.98;4.68;;;;;15.50;100430.00;;;;10477686;27;20211;-77
2023/07/27 01:02:24;;;;;;;6.15;4.40;;;;;15.50;100427.00;;;;10462570;28;21075;-77
2023/07/27 01:07:25;;;;;;;9.48;5.03;;;;;15.40;100417.00;;;;10434968;27;20219;-77
2023/07/27 01:12:48;;;;;;;9.90;5.72;;;;;15.40;100410.00;;;;10477150;27;20301;-76
2023/07/27 01:18:10;;;;;;;12.02;6.50;;;;;15.40;100404.00;;;;10456718;27;20393;-77
2023/07/27 01:23:33;;;;;;;12.20;6.47;;;;;15.40;100399.00;;;;10479277;27;21769;-76
2023/07/27 01:29:05;;;;;;;13.20;6.72;;;;;15.40;100396.00;;;;10457633;28;23522;-76
2023/07/27 01:34:14;;;;;;;12.27;6.90;;;;;15.40;100383.00;;;;10477952;27;20837;-76
2023/07/27 01:39:18;;;;;;;11.77;6.80;;;;;15.40;100372.00;;;;10459001;27;20216;-76
2023/07/27 01:44:22;;;;;;;10.98;6.25;;;;;15.30;100358.00;;;;10475288;27;20222;-77
2023/07/27 01:49:24;;;;;;;12.47;6.90;;;;;15.30;100360.00;;;;10441275;27;20251;-77
2023/07/27 01:54:26;;;;;;;10.40;6.45;;;;;15.20;100335.00;;;;10458349;27;20852;-77
2023/07/27 01:59:29;;;;;;;13.10;6.72;;;;;15.20;100331.00;;;;10459912;27;20201;-77
2023/07/27 02:04:30;;;;;;;9.10;5.87;;;;;15.20;100311.00;;;;10461094;27;20232;-77
2023/07/27 02:09:31;;;;;;;8.43;5.38;;;;;15.10;100297.00;;;;10481363;27;20216;-78
2023/07/27 02:14:43;;;;;;;8.43;5.18;;;;;15.10;100295.00;;;;10446174;27;20224;-77
2023/07/27 02:19:50;;;;;;;6.32;4.78;;;;;15.10;100290.00;;;;10440262;28;20247;-77
2023/07/27 02:24:51;;;;;;;11.15;4.10;;;;;15.10;100278.00;;;;10460151;27;20196;-78
2023/07/27 02:29:53;;;;;;;7.30;4.50;;;;;15.00;100267.00;;;;10442866;27;20283;-77
2023/07/27 02:34:54;;;;;;;5.68;3.90;;;;;15.00;100245.00;;;;10458439;27;20350;-77
2023/07/27 02:39:56;;;;;;;7.00;3.60;;;;;14.90;100241.00;;;;10460423;27;20283;-77
2023/07/27 02:44:57;;;;;;;4.20;3.33;;;;;14.90;100242.00;;;;10455931;27;20216;-77
2023/07/27 02:50:01;;;;;;;5.97;3.30;;;;;14.90;100237.00;;;;10443507;28;20245;-77
2023/07/27 02:55:04;;;;;;;7.43;4.23;;;;;14.90;100230.00;;;;10457579;27;20274;-76
2023/07/27 03:00:08;;;;;;;4.07;3.40;;;;;14.90;100214.00;;;;10441494;27;20213;-77
2023/07/27 03:05:10;;;;;;;7.73;3.53;;;;;14.90;100198.00;;;;10440675;27;20218;-76
2023/07/27 03:10:12;;;;;;;5.93;3.40;;;;;14.90;100182.00;;;;10443239;27;20881;-76
2023/07/27 03:15:13;;;;;;;4.83;3.20;;;;;14.90;100177.00;;;;10457264;27;20212;-77
2023/07/27 03:20:14;;;;;;;5.37;3.33;;;;;14.90;100176.00;;;;10456246;27;20238;-78
2023/07/27 03:25:16;;;;;;;6.27;3.40;;;;;14.90;100183.00;;;;10464373;27;20239;-76
2023/07/27 03:30:17;;;;;;;4.33;3.00;;;;;14.90;100158.00;;;;10440807;28;20220;-77
2023/07/27 03:35:22;;;;;;;5.73;3.23;;;;;14.90;100155.00;;;;10441786;27;20249;-76
2023/07/27 03:40:23;;;;;;;7.53;3.45;;;;;15.00;100146.00;;;;10460767;27;21934;-80
2023/07/27 03:45:25;;;;;;;3.37;2.87;;;;;15.00;100124.00;;;;10459751;27;20215;-80
2023/07/27 03:50:26;;;;;;;9.57;2.97;;;;;15.10;100117.00;;;;10460039;27;20802;-78
2023/07/27 03:55:29;;;;;;;4.10;3.28;;;;;15.10;100124.00;;;;10438570;27;20196;-76
2023/07/27 04:00:39;;;;;;;4.93;3.00;;;;;15.20;100125.00;;;;10454447;27;20216;-79
2023/07/27 04:05:40;;;;;;;3.67;2.80;;;;;15.20;100120.00;;;;10439714;27;20210;-76
2023/07/27 04:10:42;;;;;;;3.67;2.90;;;;;15.30;100124.00;;;;10461818;27;20345;-77
2023/07/27 04:15:43;;;;;;;7.80;3.20;;;;;15.30;100117.00;;;;10448717;27;20216;-77
2023/07/27 04:20:45;;;;;;;5.68;3.08;;;;;15.40;100102.00;;;;10444613;28;20644;-78
2023/07/27 04:25:46;;;;;;;5.33;3.00;;;;;15.50;100106.00;;;;10447997;27;20214;-78
2023/07/27 04:30:47;;;;;;;5.03;4.07;;;;;15.50;100101.00;;;;10450859;27;20246;-78
2023/07/27 04:35:48;;;;;;;6.70;3.55;;;;;15.60;100098.00;;;;10432957;27;20320;-81
2023/07/27 04:40:51;;;;;;;6.67;3.93;;;;;15.60;100094.00;;;;10462981;27;20209;-79
2023/07/27 04:45:52;;;;;;;6.72;4.70;;;;;15.70;100086.00;;;;10443590;28;20217;-79
2023/07/27 04:50:53;;;;;;;6.93;4.25;;;;;15.80;100084.00;;;;10462446;27;20268;-80
2023/07/27 04:55:56;;;;;;;6.75;4.55;;;;;15.80;100076.00;;;;10465952;27;22221;-79
2023/07/27 05:01:00;;;;;;;4.93;4.22;;;;;15.90;100063.00;;;;10463063;27;20204;-79
2023/07/27 05:06:01;;;;;;;8.30;5.88;;;;;16.00;100062.00;;;;10463147;27;20248;-79
2023/07/27 05:11:03;;;;;;;8.40;5.93;;;;;16.10;100044.00;;;;10460689;28;20948;-79
2023/07/27 05:16:05;;;;;;;11.07;5.68;;;;;16.20;100041.00;;;;10482332;27;20268;-76
2023/07/27 05:21:06;;;;;;;9.80;6.03;;;;;16.30;100040.00;;;;10463135;27;20295;-77
2023/07/27 05:26:08;;;;;;;9.57;6.53;;;;;16.40;100038.00;;;;10482905;27;20222;-79
2023/07/27 05:31:09;;;;;;;9.93;6.65;;;;;16.50;100039.00;;;;10459636;27;20226;-79
2023/07/27 05:36:10;;;;;;;8.55;6.15;;;;;16.60;100037.00;;;;10482299;27;20809;-79
2023/07/27 05:41:11;;;;;;;9.23;5.78;;;;;16.80;100031.00;;;;10480459;27;20767;-78
2023/07/27 05:46:13;;;;;;;10.32;5.15;;;;;16.80;100037.00;;;;10467245;27;20230;-74
2023/07/27 05:51:14;;;;;;;9.25;6.65;;;;;16.80;100037.00;;;;10460617;28;20217;-77
2023/07/27 05:56:16;;;;;;;9.00;5.65;;;;;16.80;100032.00;;;;10479970;27;21908;-76
2023/07/27 06:01:17;;;;;;;6.95;5.18;;;;;16.90;100035.00;;;;10476688;27;20216;-78
2023/07/27 06:06:19;;;;;;;9.07;5.47;;;;;17.00;100031.00;;;;10463544;27;20216;-78
2023/07/27 06:11:20;;;;;;;7.65;5.75;;;;;16.90;100027.00;;;;10459891;27;20298;-78
2023/07/27 06:16:21;;;;;;;6.10;5.13;;;;;17.00;100032.00;;;;10472689;27;20212;-78
2023/07/27 06:21:23;;;;;;;7.32;5.43;;;;;17.00;100028.00;;;;10461011;27;20259;-79
2023/07/27 06:26:24;;;;;;;10.32;5.05;;;;;17.00;100033.00;;;;10462322;27;20301;-78
2023/07/27 06:31:26;;;;;;;6.95;3.75;;;;;17.00;100030.00;;;;10476346;27;21825;-78
2023/07/27 06:36:27;;;;;;;4.20;3.75;;;;;17.10;100035.00;;;;10475556;27;20233;-77
2023/07/27 06:41:28;;;;;;;9.35;3.47;;;;;17.30;100031.00;;;;10479662;27;20225;-79
2023/07/27 06:46:31;;;;;;;3.15;2.60;;;;;17.20;100045.00;;;;10462067;27;20212;-79
2023/07/27 06:51:34;;;;;;;3.17;2.88;;;;;17.20;100040.00;;;;10460097;27;20258;-78
2023/07/27 06:56:36;;;;;;;5.93;3.13;;;;;17.10;100038.00;;;;10477339;27;20204;-78
2023/07/27 07:01:39;;;;;;;3.25;2.97;;;;;17.20;100042.00;;;;10475688;27;20213;-78
2023/07/27 07:06:40;;;;;;;2.92;2.63;;;;;17.20;100030.00;;;;10455395;27;20212;-78
2023/07/27 07:11:41;;;;;;;5.30;2.80;;;;;17.40;100031.00;;;;10476965;27;20216;-80
2023/07/27 07:16:42;;;;;;;3.72;2.42;;;;;17.70;100033.00;;;;10441019;28;20220;-79
2023/07/27 07:21:44;;;;;;;2.10;1.90;;;;;17.70;100023.00;;;;10476941;27;20231;-80
2023/07/27 07:26:45;;;;;;;4.90;2.38;;;;;17.90;100024.00;;;;10458046;27;21112;-81
2023/07/27 07:31:47;;;;;;;5.28;2.67;;;;;18.30;100018.00;;;;10455915;27;20217;-79
2023/07/27 07:36:48;;;;;;;3.92;2.28;;;;;18.20;100018.00;;;;10424787;27;20257;-80
2023/07/27 07:41:49;;;;;;;2.65;1.60;;;;;17.90;100024.00;;;;10441667;27;20209;-79
2023/07/27 07:46:51;;;;;;;1.80;1.70;;;;;18.20;100034.00;;;;10456860;27;20323;-79
2023/07/27 07:51:52;;;;;;;1.50;1.27;;;;;18.60;100023.00;;;;10473237;27;20279;-80
2023/07/27 07:56:55;;;;;;;1.75;1.00;;;;;18.60;100021.00;;;;10421866;28;20353;-79
2023/07/27 08:01:56;;;;;;;1.58;0.80;;;;;18.70;100030.00;;;;10421120;28;20251;-78
2023/07/27 08:07:00;;;;;;;3.15;0.82;;;;;18.90;100017.00;;;;10436179;28;21597;-79
2023/07/27 08:12:01;;;;;;;1.00;0.90;;;;;19.20;100008.00;;;;10398710;28;20265;-79
2023/07/27 08:17:05;;;;;;;0.60;0.60;;;;;19.10;100012.00;;;;10426721;28;20201;-78
2023/07/27 08:22:11;;;;;;;2.70;1.05;;;;;18.70;100019.00;;;;10403068;28;21051;-79
2023/07/27 08:27:13;;;;;;;1.80;1.00;;;;;18.80;100014.00;;;;10414336;28;20247;-80
2023/07/27 08:32:14;;;;;;;2.90;1.20;;;;;19.10;100017.00;;;;10396941;28;20314;-80
2023/07/27 08:37:16;;;;;;;2.33;1.35;;;;;19.20;100021.00;;;;10381709;28;20228;-80
2023/07/27 08:42:18;;;;;;;3.92;2.53;;;;;19.50;100012.00;;;;10397184;28;20201;-78
2023/07/27 08:47:20;;;;;;;2.97;2.67;;;;;19.80;100002.00;;;;10426721;28;20243;-79
2023/07/27 08:52:24;;;;;;;5.97;2.38;;;;;19.90;100001.00;;;;10398841;28;21879;-79
2023/07/27 08:57:28;;;;;;;4.22;2.05;;;;;20.10;100004.00;;;;10377498;28;20213;-78
2023/07/27 09:02:29;;;;;;;2.58;1.58;;;;;20.30;100005.00;;;;10413431;28;21060;-78
2023/07/27 09:07:31;;;;;;;1.85;1.63;;;;;20.50;100013.00;;;;10406859;28;20206;-78
2023/07/27 09:12:33;;;;;;;1.40;1.30;;;;;20.20;99998.00;;;;10425999;28;20225;-78
2023/07/27 09:17:34;;;;;;;1.13;1.02;;;;;20.10;99998.00;;;;10427183;28;20482;-78
2023/07/27 09:22:36;;;;;;;2.78;1.35;;;;;19.70;100001.00;;;;10426622;28;20414;-79
2023/07/27 10:04:32;;;;;;;1.30;1.00;;;;;20.30;100011.00;;;;10433932;28;20224;-77
2023/07/27 10:09:34;;;;;;;2.67;1.08;;;;;20.30;100013.00;;;;10430913;28;20211;-78
2023/07/27 10:14:38;;;;;;;1.52;1.05;;;;;20.40;100006.00;;;;10427870;28;20227;-77
2023/07/27 10:19:46;;;;;;;2.28;1.17;;;;;21.20;100002.00;;;;10408647;28;20701;-76
2023/07/27 10:24:52;;;;;;;1.98;1.33;;;;;21.60;100002.00;;;;10425847;28;20640;-75
2023/07/27 10:30:08;;;;;;;4.45;1.67;;;;;21.50;100009.00;;;;10427492;28;20212;-74
2023/07/27 10:35:10;;;;;;;2.65;1.80;;;;;21.50;100012.00;;;;10441342;28;22433;-78
2023/07/27 10:40:23;;;;;;;1.98;1.60;;;;;21.10;100022.00;;;;10430716;28;20205;-78
2023/07/27 10:45:26;;;;;;;3.47;2.25;;;;;21.30;100015.00;;;;10416433;28;20201;-79
2023/07/27 10:50:27;;;;;;;3.20;2.15;;;;;21.10;100021.00;;;;10402106;28;20212;-76
2023/07/27 10:55:29;;;;;;;4.20;2.08;;;;;20.90;100018.00;;;;10388502;28;21853;-78
2023/07/27 11:00:37;;;;;;;5.22;2.35;;;;;21.20;100019.00;;;;10427377;28;20213;-79
2023/07/27 11:05:39;;;;;;;2.60;2.40;;;;;21.30;100019.00;;;;10401720;28;20213;-79
2023/07/27 11:10:41;;;;;;;4.07;2.55;;;;;21.70;100004.00;;;;10405083;28;20213;-78
2023/07/27 11:15:45;;;;;;;2.47;1.80;;;;;21.70;100006.00;;;;10428599;28;20208;-77
2023/07/27 11:20:47;;;;;;;2.38;1.65;;;;;21.00;100009.00;;;;10396650;28;20278;-77
2023/07/27 11:25:48;;;;;;;2.28;1.80;;;;;20.60;100001.00;;;;10411724;28;20205;-78
2023/07/27 11:30:52;;;;;;;3.53;2.10;;;;;20.10;100021.00;;;;10407486;28;21951;-75
2023/07/27 11:35:54;;;;;;;2.33;2.03;;;;;20.00;100029.00;;;;10420586;28;20208;-75
2023/07/27 11:40:57;;;;;;;2.38;2.20;;;;;20.00;100021.00;;;;10419960;28;20196;-77
2023/07/27 11:46:19;;;;;;;2.88;2.17;;;;;20.00;100016.00;;;;10422337;28;22399;-78
2023/07/27 11:51:23;;;;;;;2.38;2.17;;;;;20.30;100012.00;;;;10391005;28;20255;-77
2023/07/27 11:56:27;;;;;;;2.63;1.92;;;;;20.50;100022.00;;;;10395123;28;20296;-77
2023/07/27 12:01:28;;;;;;;4.90;1.77;;;;;20.40;100015.00;;;;10375975;28;21959;-78
2023/07/27 12:06:30;;;;;;;5.18;2.20;;;;;20.40;100021.00;;;;10422306;28;22081;-77
2023/07/27 12:11:33;;;;;;;1.60;1.50;;;;;20.00;100035.00;;;;10406057;28;20792;-77
2023/07/27 12:16:44;;;;;;;3.60;2.25;;;;;20.10;100030.00;;;;10422938;28;20232;-78
2023/07/27 12:21:49;;;;;;;1.77;1.67;;;;;20.20;100022.00;;;;10411364;28;20205;-78
2023/07/27 12:26:58;;;;;;;3.25;1.80;;;;;20.10;100030.00;;;;10411228;28;21832;-78
2023/07/27 12:32:03;;;;;;;1.88;1.40;;;;;20.10;100044.00;;;;10410191;28;20244;-77
2023/07/27 12:37:08;;;;;;;2.67;0.95;;;;;19.90;100045.00;;;;10429529;28;20260;-78
2023/07/27 12:42:13;;;;;;;1.38;1.27;;;;;19.90;100037.00;;;;10414226;28;21814;-78
2023/07/27 12:47:17;;;;;;;3.72;1.63;;;;;20.20;100027.00;;;;10432802;28;20301;-77
2023/07/27 12:52:18;;;;;;;2.47;1.50;;;;;20.70;100043.00;;;;10412402;28;21184;-77
2023/07/27 12:57:21;;;;;;;1.80;1.70;;;;;20.80;100021.00;;;;10425177;28;20216;-77
2023/07/27 13:02:22;;;;;;;3.50;1.73;;;;;20.80;100022.00;;;;10406708;28;20688;-79
2023/07/27 13:07:24;;;;;;;2.10;1.60;;;;;20.60;100028.00;;;;10433161;28;20279;-78
2023/07/27 13:12:25;;;;;;;2.95;1.75;;;;;20.70;100024.00;;;;10420103;28;20233;-79
2023/07/27 13:17:26;;;;;;;2.47;1.50;;;;;20.50;100031.00;;;;10422408;28;20218;-79
2023/07/27 13:22:27;;;;;;;2.17;1.65;;;;;20.30;100035.00;;;;10438529;28;21923;-78
2023/07/27 13:27:29;;;;;;;2.17;1.60;;;;;20.30;100027.00;;;;10417442;28;20700;-77
2023/07/27 13:32:31;;;;;;;2.20;1.52;;;;;20.20;100026.00;;;;10399531;28;20224;-79
2023/07/27 13:37:32;;;;;;;1.50;1.40;;;;;20.20;100025.00;;;;10380509;28;21218;-77
2023/07/27 13:42:34;;;;;;;2.08;1.40;;;;;19.90;100041.00;;;;10434372;28;21790;-77
2023/07/27 13:47:35;;;;;;;2.53;1.48;;;;;19.70;100044.00;;;;10443213;28;20297;-76
2023/07/27 13:52:36;;;;;;;1.88;1.70;;;;;19.50;100052.00;;;;10438471;28;20928;-76
2023/07/27 13:57:37;;;;;;;1.98;1.58;;;;;19.50;100058.00;;;;10419861;28;20205;-78
2023/07/27 14:02:39;;;;;;;1.85;1.50;;;;;19.50;100047.00;;;;10436712;28;20214;-77
2023/07/27 14:07:40;;;;;;;2.83;1.75;;;;;19.50;100033.00;;;;10420757;28;20213;-76
2023/07/27 14:12:41;;;;;;;4.90;1.90;;;;;19.40;100043.00;;;;10377318;28;20796;-77
2023/07/27 14:17:43;;;;;;;4.68;1.55;;;;;19.30;100043.00;;;;10421781;28;20211;-78
2023/07/27 14:22:45;;;;;;;2.47;1.90;;;;;19.30;100047.00;;;;10439701;28;20692;-80
2023/07/27 14:27:46;;;;;;;2.90;1.80;;;;;19.30;100046.00;;;;10419999;28;20205;-79
2023/07/27 14:32:48;;;;;;;3.50;1.90;;;;;19.60;100037.00;;;;10436644;28;20296;-77
2023/07/27 14:37:50;;;;;;;2.58;1.92;;;;;19.70;100040.00;;;;10401106;28;20260;-77
2023/07/27 14:42:52;;;;;;;2.03;1.90;;;;;19.60;100032.00;;;;10432632;28;20208;-77
2023/07/27 14:47:53;;;;;;;2.95;1.92;;;;;19.50;100042.00;;;;10419720;28;20239;-78
2023/07/27 14:52:55;;;;;;;3.25;1.90;;;;;19.50;100047.00;;;;10418038;28;21836;-78
2023/07/27 14:57:59;;;;;;;2.05;1.92;;;;;19.30;100052.00;;;;10434344;28;20206;-76
2023/07/27 15:03:00;;;;;;;2.50;1.92;;;;;19.10;100048.00;;;;10422187;28;22116;-77
2023/07/27 15:08:05;;;;;;;7.28;1.60;;;;;19.30;100052.00;;;;10436174;28;20201;-77
2023/07/27 15:13:06;;;;;;;2.42;1.80;;;;;19.20;100047.00;;;;10409067;28;20217;-76
2023/07/27 15:18:07;;;;;;;2.33;1.50;;;;;19.00;100047.00;;;;10390821;28;20217;-76
2023/07/27 15:23:12;;;;;;;4.05;1.45;;;;;18.90;100054.00;;;;10410032;28;20197;-76
2023/07/27 15:28:13;;;;;;;9.35;2.22;;;;;19.00;100048.00;;;;10412204;28;20821;-78
2023/07/27 15:33:14;;;;;;;6.32;2.30;;;;;19.20;100046.00;;;;10433429;28;20315;-79
2023/07/27 15:38:16;;;;;;;3.28;1.92;;;;;19.10;100045.00;;;;10415293;28;20211;-77
2023/07/27 15:43:18;;;;;;;2.15;1.58;;;;;19.20;100042.00;;;;10433191;28;20379;-77
2023/07/27 15:48:21;;;;;;;3.47;2.30;;;;;19.20;100042.00;;;;10392528;28;20256;-77
2023/07/27 15:53:22;;;;;;;3.22;2.30;;;;;19.00;100052.00;;;;10409142;28;22541;-77
2023/07/27 15:58:24;;;;;;;4.07;2.42;;;;;18.90;100047.00;;;;10417589;28;20199;-77
2023/07/27 16:03:25;;;;;;;5.15;2.28;;;;;18.90;100044.00;;;;10424426;28;20213;-79
2023/07/27 16:08:27;;;;;;;5.72;2.20;;;;;19.40;100038.00;;;;10413118;28;20205;-78
2023/07/27 16:13:28;;;;;;;2.58;2.38;;;;;19.50;100044.00;;;;10429554;28;20216;-80
2023/07/27 16:18:29;;;;;;;4.32;2.53;;;;;19.00;100054.00;;;;10435416;28;20216;-78
2023/07/27 16:23:33;;;;;;;2.55;1.95;;;;;18.90;100053.00;;;;10395809;28;20874;-78
2023/07/27 16:28:34;;;;;;;2.58;1.98;;;;;18.90;100059.00;;;;10435554;28;20217;-79
2023/07/27 16:33:36;;;;;;;2.42;2.20;;;;;18.80;100052.00;;;;10403974;28;21223;-79
2023/07/27 16:38:37;;;;;;;4.93;1.90;;;;;18.90;100053.00;;;;10431229;28;20232;-79
2023/07/27 16:43:39;;;;;;;2.75;1.70;;;;;18.70;100054.00;;;;10435020;28;20236;-78
2023/07/27 16:48:40;;;;;;;3.15;1.90;;;;;18.60;100058.00;;;;10434073;28;20220;-81
2023/07/27 16:53:41;;;;;;;2.60;2.00;;;;;18.60;100044.00;;;;10411932;28;20279;-79
2023/07/27 16:58:43;;;;;;;2.20;1.83;;;;;18.90;100034.00;;;;10425874;28;20210;-79
2023/07/27 17:03:45;;;;;;;2.00;1.73;;;;;19.00;100035.00;;;;10420122;28;20302;-79
2023/07/27 17:08:47;;;;;;;3.97;1.90;;;;;19.10;100031.00;;;;10437487;28;20262;-80
2023/07/27 17:13:48;;;;;;;4.65;1.90;;;;;18.90;100030.00;;;;10416420;28;20260;-79
2023/07/27 17:18:50;;;;;;;2.10;1.88;;;;;18.80;100035.00;;;;10425595;28;20331;-79
2023/07/27 17:23:51;;;;;;;3.60;2.10;;;;;18.80;100034.00;;;;10443263;28;20712;-79
2023/07/27 17:28:53;;;;;;;2.55;1.45;;;;;18.80;100047.00;;;;10406435;28;20205;-79
2023/07/27 17:33:56;;;;;;;3.08;1.55;;;;;18.70;100034.00;;;;10428459;28;20221;-79
2023/07/27 17:38:57;;;;;;;3.38;1.85;;;;;18.60;100051.00;;;;10442804;28;20243;-78
2023/07/27 17:43:58;;;;;;;1.60;1.20;;;;;18.50;100046.00;;;;10425193;28;20213;-80
2023/07/27 17:49:00;;;;;;;1.40;1.25;;;;;18.40;100054.00;;;;10422607;28;20286;-80
2023/07/27 17:54:01;;;;;;;2.10;1.50;;;;;18.30;100053.00;;;;10429874;28;20325;-80
2023/07/27 17:59:02;;;;;;;5.70;1.40;;;;;18.20;100044.00;;;;10428357;28;20254;-80
2023/07/27 18:04:03;;;;;;;2.08;1.38;;;;;18.20;100044.00;;;;10445888;28;20219;-79
2023/07/27 18:09:05;;;;;;;2.38;1.38;;;;;18.30;100042.00;;;;10422554;28;20205;-79
2023/07/27 18:14:06;;;;;;;2.90;1.45;;;;;18.40;100040.00;;;;10424606;28;20236;-79
2023/07/27 18:19:08;;;;;;;3.50;1.60;;;;;18.40;100035.00;;;;10426410;28;20218;-80
2023/07/27 18:24:09;;;;;;;1.40;1.27;;;;;18.30;100039.00;;;;10423665;28;20213;-80
2023/07/27 18:29:28;;;;;;;4.47;1.40;;;;;18.20;100055.00;;;;10441483;28;20700;-79
2023/07/27 18:34:29;;;;;;;2.03;1.58;;;;;18.20;100050.00;;;;10424173;28;20232;-76
2023/07/27 18:39:31;;;;;;;2.88;1.33;;;;;18.10;100052.00;;;;10418735;28;20341;-80
2023/07/27 18:44:32;;;;;;;1.77;1.42;;;;;18.10;100055.00;;;;10420965;28;20212;-80
2023/07/27 18:49:34;;;;;;;2.67;1.45;;;;;18.00;100054.00;;;;10440286;28;20197;-80
2023/07/27 18:54:35;;;;;;;1.77;1.67;;;;;18.00;100057.00;;;;10435913;28;20247;-79
2023/07/27 18:59:36;;;;;;;3.05;1.60;;;;;18.00;100059.00;;;;10402112;28;21816;-81
2023/07/27 19:04:38;;;;;;;2.53;1.58;;;;;17.90;100049.00;;;;10416547;28;20278;-80
2023/07/27 19:09:39;;;;;;;1.50;1.40;;;;;17.90;100061.00;;;;10421546;28;20212;-80
2023/07/27 19:14:40;;;;;;;3.53;1.45;;;;;17.90;100055.00;;;;10435866;28;20240;-81
2023/07/27 19:19:41;;;;;;;4.22;1.45;;;;;17.80;100055.00;;;;10433523;28;20321;-80
2023/07/27 19:24:43;;;;;;;1.70;1.60;;;;;17.70;100062.00;;;;10422334;28;20220;-79
2023/07/27 19:29:44;;;;;;;3.72;1.90;;;;;17.60;100055.00;;;;10432743;28;20198;-79
2023/07/27 19:34:46;;;;;;;3.33;1.88;;;;;17.50;100054.00;;;;10435858;28;20217;-80
2023/07/27 19:39:47;;;;;;;4.00;2.00;;;;;17.40;100063.00;;;;10422291;28;20197;-79
2023/07/27 19:44:48;;;;;;;3.05;1.88;;;;;17.30;100063.00;;;;10418858;28;20205;-79
2023/07/27 19:49:49;;;;;;;2.42;1.85;;;;;17.30;100063.00;;;;10417432;28;20267;-80
2023/07/27 19:55:07;;;;;;;6.28;2.30;;;;;17.20;100047.00;;;;10410048;28;20216;-80
2023/07/27 20:00:09;;;;;;;9.73;2.00;;;;;17.20;100047.00;;;;10401306;28;20193;-79
2023/07/27 20:05:16;;;;;;;5.25;1.73;;;;;17.10;100049.00;;;;10412914;28;20259;-80
2023/07/27 20:10:17;;;;;;;1.80;1.70;;;;;17.10;100053.00;;;;10433843;28;20405;-78
2023/07/27 20:15:19;;;;;;;2.03;1.67;;;;;17.10;100068.00;;;;10417140;28;20231;-80
2023/07/27 20:20:20;;;;;;;2.35;1.70;;;;;17.10;100073.00;;;;10399831;28;20290;-80
2023/07/27 20:25:21;;;;;;;2.10;1.90;;;;;17.10;100063.00;;;;10413109;28;20798;-79
2023/07/27 20:30:23;;;;;;;5.97;2.00;;;;;17.10;100066.00;;;;10431225;28;20200;-79
2023/07/27 20:35:24;;;;;;;4.47;1.90;;;;;17.10;100068.00;;;;10426663;28;20236;-79
2023/07/27 20:40:25;;;;;;;2.30;2.05;;;;;17.00;100066.00;;;;10433014;28;20213;-81
2023/07/27 20:45:27;;;;;;;3.10;2.30;;;;;17.00;100064.00;;;;10434333;28;20201;-80
2023/07/27 20:50:28;;;;;;;2.60;2.40;;;;;17.00;100037.00;;;;10432209;28;20202;-81
2023/07/27 20:55:32;;;;;;;4.63;2.50;;;;;17.00;100048.00;;;;10419984;28;20228;-80
2023/07/27 21:00:34;;;;;;;4.05;2.90;;;;;17.00;100054.00;;;;10453986;28;20196;-76
2023/07/27 21:05:38;;;;;;;2.80;2.50;;;;;17.00;100061.00;;;;10486591;28;20698;-74
2023/07/27 21:10:39;;;;;;;3.83;2.75;;;;;17.00;100051.00;;;;10510885;28;20213;-76
2023/07/27 21:15:41;;;;;;;4.97;2.40;;;;;17.00;100057.00;;;;10498018;28;20248;-76
2023/07/27 21:20:42;;;;;;;4.18;2.30;;;;;17.00;100056.00;;;;10482387;27;20188;-76
2023/07/27 21:25:44;;;;;;;3.42;2.30;;;;;17.00;100054.00;;;;10508162;28;20207;-76
2023/07/27 21:30:45;;;;;;;2.97;1.92;;;;;17.00;100044.00;;;;10509307;28;20251;-77
2023/07/27 21:35:47;;;;;;;3.47;2.03;;;;;17.00;100045.00;;;;10491437;28;20251;-75
2023/07/27 21:40:48;;;;;;;3.60;1.92;;;;;17.00;100038.00;;;;10494038;28;20205;-74
2023/07/27 21:45:51;;;;;;;5.05;1.88;;;;;17.00;100040.00;;;;10473473;28;20276;-74
2023/07/27 21:50:52;;;;;;;1.50;1.40;;;;;17.00;100041.00;;;;10493033;28;20201;-75
2023/07/27 21:55:53;;;;;;;2.63;1.90;;;;;17.10;100051.00;;;;10491655;28;20592;-75
2023/07/27 22:00:57;;;;;;;3.33;1.60;;;;;17.10;100055.00;;;;10525816;28;20196;-77
2023/07/27 22:05:58;;;;;;;3.47;1.80;;;;;17.10;100037.00;;;;10513865;28;20201;-76
2023/07/27 22:10:59;;;;;;;5.80;2.33;;;;;17.10;100041.00;;;;10504106;28;20205;-77
2023/07/27 22:16:00;;;;;;;3.75;2.90;;;;;17.10;100040.00;;;;10523193;28;20212;-77
2023/07/27 22:21:07;;;;;;;3.50;3.20;;;;;17.10;100044.00;;;;10514165;28;20189;-76
2023/07/27 22:26:09;;;;;;;5.10;3.80;;;;;17.10;100043.00;;;;10503492;28;20204;-76
2023/07/27 22:31:13;;;;;;;4.80;3.55;;;;;17.10;100053.00;;;;10512556;28;20213;-77
2023/07/27 22:36:15;;;;;;;5.28;3.13;;;;;17.10;100045.00;;;;10502992;28;20790;-78
2023/07/27 22:41:16;;;;;;;5.35;3.88;;;;;17.10;100055.00;;;;10517602;28;20691;-76
2023/07/27 22:46:17;;;;;;;4.45;4.05;;;;;17.10;100040.00;;;;10475088;28;20273;-76
2023/07/27 22:51:21;;;;;;;8.30;4.10;;;;;17.10;100045.00;;;;10517647;28;20217;-77
2023/07/27 22:56:22;;;;;;;8.95;4.43;;;;;17.10;100041.00;;;;10506270;28;20201;-76
2023/07/27 23:01:24;;;;;;;6.82;4.65;;;;;17.10;100048.00;;;;10513980;28;20292;-79
2023/07/27 23:06:26;;;;;;;7.30;4.88;;;;;17.10;100046.00;;;;10500204;28;20699;-77
2023/07/27 23:11:30;;;;;;;9.55;5.35;;;;;17.20;100040.00;;;;10493122;28;20212;-76
2023/07/27 23:16:32;;;;;;;8.63;5.35;;;;;17.20;100033.00;;;;10471596;28;20202;-74
2023/07/27 23:21:34;;;;;;;8.95;5.13;;;;;17.20;100044.00;;;;10464225;28;20738;-74
2023/07/27 23:26:35;;;;;;;6.25;4.75;;;;;17.20;100044.00;;;;10499384;28;20251;-82
2023/07/27 23:31:38;;;;;;;7.38;4.93;;;;;17.20;100033.00;;;;10526018;28;20210;-82
2023/07/27 23:36:39;;;;;;;8.68;4.82;;;;;17.20;100031.00;;;;10477983;28;20205;-83
2023/07/27 23:41:40;;;;;;;7.75;4.82;;;;;17.30;100030.00;;;;10470378;28;20238;-83
2023/07/27 23:46:41;;;;;;;6.97;5.28;;;;;17.30;100037.00;;;;10505933;28;20201;-82
2023/07/27 23:51:43;;;;;;;8.45;4.78;;;;;17.30;100036.00;;;;10533447;28;20292;-81
2023/07/27 23:56:45;;;;;;;6.07;4.53;;;;;17.30;100036.00;;;;10508927;28;20209;-76
